Terminal Aerodrome Forecast
Issued by NWS Goodland, KS

Home | Current Version | Previous Version | Text Only | Print | Product List | Glossary On
Versions: 1 2 3 4 5 6 7 8 9 10 11 12 13 14 15 16 17 18 19 20 21 22 23 24
000
FTUS43 KGLD 161120
TAFGLD
TAF
KGLD 161120Z 1612/1712 30008KT P6SM SCT250
     FM161600 VRB03KT P6SM SCT008 SCT015 BKN230
     FM162100 14006KT P6SM SCT140 OVC180
     FM170800 14008KT P6SM BKN008=

USA.gov is the U.S. government's official web portal to all federal, state and local government web resources and services.